Terminal Aerodrome Forecast
Issued by NWS

Home | Current Version | Previous Version | Text Only | Print | Product List | Glossary On
Versions: 1 2 3 4 5 6 7 8 9 10 11 12 13 14
000
FTUS43 KEAX 282300
TAFMKC
TAF
KMKC 282320Z 2900/2924 22012KT P6SM FEW200
     FM290500 32012G20KT P6SM SKC
     FM290900 33015G25KT P6SM BKN020
     FM291900 34012G20KT P6SM SCT040=

USA.gov is the U.S. government's official web portal to all federal, state and local government web resources and services.